Marston Moretaine, United Kingdom
Current Conditions -  °F | °C
As of 4:20 AM on Sunday 26 Oct 2014 (Local Time) from EGGW Reporting Station
Few Clouds Few Clouds  
Wind Chill: 50°   Ceiling: Unl
Heat Index: 50°   Visibility: 6mi
Dew Point: 46°   Wind: 8mph
Humidity: 87%   Direction: 200°SSW
Pressure: 30.09"   Gusts: NA
Location:  52.06°N, 0.55°W
Report Text: EGGW 260320Z 20007KT 140V240 9999 FEW030 10/08 Q1019
Loading
Personal Weather Stations






























Interactive Weather Map
Tropical Storm Tracking
New forecast layout! Learn more

10-Day Weather Forecast

Advertisements
Track Severe Weather on mobile